sensor_id;sensor_type;location;lat;lon;timestamp;P1;durP1;ratioP1;P2;durP2;ratioP2
42168;SDS011;27838;43.858;25.974;2024-01-10T00:00:58;5.55;;;1.90;;
42168;SDS011;27838;43.858;25.974;2024-01-10T00:03:25;5.40;;;2.50;;
42168;SDS011;27838;43.858;25.974;2024-01-10T00:05:52;6.60;;;2.53;;
42168;SDS011;27838;43.858;25.974;2024-01-10T00:08:18;7.20;;;2.28;;
42168;SDS011;27838;43.858;25.974;2024-01-10T00:10:45;6.07;;;3.05;;
42168;SDS011;27838;43.858;25.974;2024-01-10T00:13:12;10.00;;;3.88;;
42168;SDS011;27838;43.858;25.974;2024-01-10T00:15:38;6.65;;;3.08;;
42168;SDS011;27838;43.858;25.974;2024-01-10T00:18:05;7.60;;;3.08;;
42168;SDS011;27838;43.858;25.974;2024-01-10T00:20:31;10.25;;;3.30;;
42168;SDS011;27838;43.858;25.974;2024-01-10T00:22:58;5.70;;;3.05;;
42168;SDS011;27838;43.858;25.974;2024-01-10T00:25:24;8.75;;;3.28;;
42168;SDS011;27838;43.858;25.974;2024-01-10T00:27:51;5.80;;;3.08;;
42168;SDS011;27838;43.858;25.974;2024-01-10T00:30:17;4.55;;;3.17;;
42168;SDS011;27838;43.858;25.974;2024-01-10T00:32:44;6.95;;;3.33;;
42168;SDS011;27838;43.858;25.974;2024-01-10T00:35:10;6.30;;;2.80;;
42168;SDS011;27838;43.858;25.974;2024-01-10T00:37:37;6.35;;;3.53;;
42168;SDS011;27838;43.858;25.974;2024-01-10T00:40:04;6.72;;;2.53;;
42168;SDS011;27838;43.858;25.974;2024-01-10T00:42:31;8.82;;;3.47;;
42168;SDS011;27838;43.858;25.974;2024-01-10T00:44:57;5.90;;;3.08;;
42168;SDS011;27838;43.858;25.974;2024-01-10T00:47:24;6.60;;;2.67;;
42168;SDS011;27838;43.858;25.974;2024-01-10T00:49:50;4.10;;;2.65;;
42168;SDS011;27838;43.858;25.974;2024-01-10T00:52:16;3.83;;;2.30;;
42168;SDS011;27838;43.858;25.974;2024-01-10T00:54:42;6.25;;;3.50;;
42168;SDS011;27838;43.858;25.974;2024-01-10T00:57:11;9.48;;;4.70;;
42168;SDS011;27838;43.858;25.974;2024-01-10T00:59:37;13.80;;;6.57;;
42168;SDS011;27838;43.858;25.974;2024-01-10T01:02:04;15.10;;;7.30;;
42168;SDS011;27838;43.858;25.974;2024-01-10T01:04:30;14.48;;;6.30;;
42168;SDS011;27838;43.858;25.974;2024-01-10T01:06:57;15.73;;;7.50;;
42168;SDS011;27838;43.858;25.974;2024-01-10T01:09:24;15.38;;;7.65;;
42168;SDS011;27838;43.858;25.974;2024-01-10T01:11:51;17.33;;;8.55;;
42168;SDS011;27838;43.858;25.974;2024-01-10T01:14:18;18.20;;;9.13;;
42168;SDS011;27838;43.858;25.974;2024-01-10T01:16:44;18.77;;;8.25;;
42168;SDS011;27838;43.858;25.974;2024-01-10T01:19:11;14.98;;;7.95;;
42168;SDS011;27838;43.858;25.974;2024-01-10T01:21:37;27.35;;;8.75;;
42168;SDS011;27838;43.858;25.974;2024-01-10T01:24:04;16.13;;;8.38;;
42168;SDS011;27838;43.858;25.974;2024-01-10T01:26:30;17.58;;;9.02;;
42168;SDS011;27838;43.858;25.974;2024-01-10T01:28:57;20.02;;;9.55;;
42168;SDS011;27838;43.858;25.974;2024-01-10T01:31:23;22.38;;;8.73;;
42168;SDS011;27838;43.858;25.974;2024-01-10T01:33:50;20.90;;;9.27;;
42168;SDS011;27838;43.858;25.974;2024-01-10T01:36:16;19.95;;;9.60;;
42168;SDS011;27838;43.858;25.974;2024-01-10T01:38:42;24.48;;;9.45;;
42168;SDS011;27838;43.858;25.974;2024-01-10T01:41:09;17.13;;;8.38;;
42168;SDS011;27838;43.858;25.974;2024-01-10T01:43:35;18.48;;;9.30;;
42168;SDS011;27838;43.858;25.974;2024-01-10T01:46:02;26.33;;;10.05;;
42168;SDS011;27838;43.858;25.974;2024-01-10T01:48:29;16.35;;;8.45;;
42168;SDS011;27838;43.858;25.974;2024-01-10T01:50:57;16.95;;;8.07;;
42168;SDS011;27838;43.858;25.974;2024-01-10T01:53:26;19.42;;;9.55;;
42168;SDS011;27838;43.858;25.974;2024-01-10T01:55:53;19.73;;;8.40;;
42168;SDS011;27838;43.858;25.974;2024-01-10T01:58:22;20.58;;;8.75;;
42168;SDS011;27838;43.858;25.974;2024-01-10T02:00:49;16.60;;;8.10;;
42168;SDS011;27838;43.858;25.974;2024-01-10T02:03:16;21.10;;;8.25;;
42168;SDS011;27838;43.858;25.974;2024-01-10T02:05:43;16.88;;;8.45;;
42168;SDS011;27838;43.858;25.974;2024-01-10T02:08:09;17.38;;;8.57;;
42168;SDS011;27838;43.858;25.974;2024-01-10T02:10:36;18.10;;;8.25;;
42168;SDS011;27838;43.858;25.974;2024-01-10T02:13:03;18.55;;;8.98;;
42168;SDS011;27838;43.858;25.974;2024-01-10T02:15:29;25.77;;;10.38;;
42168;SDS011;27838;43.858;25.974;2024-01-10T02:17:56;14.35;;;7.97;;
42168;SDS011;27838;43.858;25.974;2024-01-10T02:20:23;15.60;;;8.10;;
42168;SDS011;27838;43.858;25.974;2024-01-10T02:22:49;16.73;;;8.52;;
42168;SDS011;27838;43.858;25.974;2024-01-10T02:25:16;18.38;;;9.18;;
42168;SDS011;27838;43.858;25.974;2024-01-10T02:27:42;20.63;;;8.40;;
42168;SDS011;27838;43.858;25.974;2024-01-10T02:30:09;14.60;;;8.43;;
42168;SDS011;27838;43.858;25.974;2024-01-10T02:32:36;18.80;;;8.00;;
42168;SDS011;27838;43.858;25.974;2024-01-10T02:35:03;22.70;;;8.98;;
42168;SDS011;27838;43.858;25.974;2024-01-10T02:37:30;17.67;;;9.43;;
42168;SDS011;27838;43.858;25.974;2024-01-10T02:39:56;14.98;;;8.07;;
42168;SDS011;27838;43.858;25.974;2024-01-10T02:42:22;18.40;;;8.88;;
42168;SDS011;27838;43.858;25.974;2024-01-10T02:44:49;16.17;;;8.82;;
42168;SDS011;27838;43.858;25.974;2024-01-10T02:47:15;17.60;;;8.55;;
42168;SDS011;27838;43.858;25.974;2024-01-10T02:49:42;16.77;;;8.77;;
42168;SDS011;27838;43.858;25.974;2024-01-10T02:52:09;18.92;;;8.77;;
42168;SDS011;27838;43.858;25.974;2024-01-10T02:54:35;14.52;;;7.70;;
42168;SDS011;27838;43.858;25.974;2024-01-10T02:57:02;16.38;;;8.98;;
42168;SDS011;27838;43.858;25.974;2024-01-10T02:59:28;17.05;;;8.85;;
42168;SDS011;27838;43.858;25.974;2024-01-10T03:01:55;18.45;;;9.07;;
42168;SDS011;27838;43.858;25.974;2024-01-10T03:04:21;19.38;;;9.40;;
42168;SDS011;27838;43.858;25.974;2024-01-10T03:06:48;17.48;;;8.68;;
42168;SDS011;27838;43.858;25.974;2024-01-10T03:09:15;18.52;;;9.07;;
42168;SDS011;27838;43.858;25.974;2024-01-10T03:11:42;17.60;;;8.93;;
42168;SDS011;27838;43.858;25.974;2024-01-10T03:14:09;21.05;;;8.63;;
42168;SDS011;27838;43.858;25.974;2024-01-10T03:16:37;19.80;;;9.57;;
42168;SDS011;27838;43.858;25.974;2024-01-10T03:19:04;22.60;;;9.60;;
42168;SDS011;27838;43.858;25.974;2024-01-10T03:21:30;19.88;;;9.00;;
42168;SDS011;27838;43.858;25.974;2024-01-10T03:23:57;17.35;;;8.77;;
42168;SDS011;27838;43.858;25.974;2024-01-10T03:26:25;15.65;;;8.82;;
42168;SDS011;27838;43.858;25.974;2024-01-10T03:28:53;21.52;;;9.63;;
42168;SDS011;27838;43.858;25.974;2024-01-10T03:31:20;20.00;;;9.70;;
42168;SDS011;27838;43.858;25.974;2024-01-10T03:33:46;15.82;;;9.13;;
42168;SDS011;27838;43.858;25.974;2024-01-10T03:36:15;17.20;;;8.98;;
42168;SDS011;27838;43.858;25.974;2024-01-10T03:38:43;23.13;;;10.23;;
42168;SDS011;27838;43.858;25.974;2024-01-10T03:41:13;17.98;;;9.98;;
42168;SDS011;27838;43.858;25.974;2024-01-10T03:43:40;18.00;;;9.27;;
42168;SDS011;27838;43.858;25.974;2024-01-10T03:46:07;17.40;;;8.65;;
42168;SDS011;27838;43.858;25.974;2024-01-10T03:48:34;15.80;;;9.50;;
42168;SDS011;27838;43.858;25.974;2024-01-10T03:51:02;20.92;;;9.70;;
42168;SDS011;27838;43.858;25.974;2024-01-10T03:53:29;16.38;;;8.73;;
42168;SDS011;27838;43.858;25.974;2024-01-10T03:55:56;15.88;;;9.00;;
42168;SDS011;27838;43.858;25.974;2024-01-10T03:58:23;17.80;;;9.18;;
42168;SDS011;27838;43.858;25.974;2024-01-10T04:00:50;16.33;;;8.57;;
42168;SDS011;27838;43.858;25.974;2024-01-10T04:03:16;20.73;;;9.63;;
42168;SDS011;27838;43.858;25.974;2024-01-10T04:05:43;20.77;;;9.48;;
42168;SDS011;27838;43.858;25.974;2024-01-10T04:08:09;20.30;;;8.98;;
42168;SDS011;27838;43.858;25.974;2024-01-10T04:10:36;20.52;;;9.07;;
42168;SDS011;27838;43.858;25.974;2024-01-10T04:13:02;17.70;;;8.63;;
42168;SDS011;27838;43.858;25.974;2024-01-10T04:15:29;17.33;;;8.98;;
42168;SDS011;27838;43.858;25.974;2024-01-10T04:17:56;22.83;;;8.93;;
42168;SDS011;27838;43.858;25.974;2024-01-10T04:20:22;19.25;;;9.68;;
42168;SDS011;27838;43.858;25.974;2024-01-10T04:22:49;15.70;;;8.35;;
42168;SDS011;27838;43.858;25.974;2024-01-10T04:25:15;21.20;;;8.70;;
42168;SDS011;27838;43.858;25.974;2024-01-10T04:27:42;15.60;;;8.85;;
42168;SDS011;27838;43.858;25.974;2024-01-10T04:30:08;20.60;;;9.00;;
42168;SDS011;27838;43.858;25.974;2024-01-10T04:32:35;20.60;;;9.32;;
42168;SDS011;27838;43.858;25.974;2024-01-10T04:35:02;18.20;;;8.75;;
42168;SDS011;27838;43.858;25.974;2024-01-10T04:37:29;14.63;;;8.32;;
42168;SDS011;27838;43.858;25.974;2024-01-10T04:39:55;18.73;;;8.90;;
42168;SDS011;27838;43.858;25.974;2024-01-10T04:42:22;19.77;;;9.30;;
42168;SDS011;27838;43.858;25.974;2024-01-10T04:44:48;18.75;;;8.95;;
42168;SDS011;27838;43.858;25.974;2024-01-10T04:47:15;12.85;;;7.43;;
42168;SDS011;27838;43.858;25.974;2024-01-10T04:49:42;13.20;;;8.15;;
42168;SDS011;27838;43.858;25.974;2024-01-10T04:52:10;13.68;;;8.18;;
42168;SDS011;27838;43.858;25.974;2024-01-10T04:54:37;17.15;;;9.13;;
42168;SDS011;27838;43.858;25.974;2024-01-10T04:57:04;19.20;;;8.40;;
42168;SDS011;27838;43.858;25.974;2024-01-10T04:59:30;17.00;;;8.32;;
42168;SDS011;27838;43.858;25.974;2024-01-10T05:01:57;17.35;;;7.93;;
42168;SDS011;27838;43.858;25.974;2024-01-10T05:04:24;16.63;;;8.38;;
42168;SDS011;27838;43.858;25.974;2024-01-10T05:06:50;15.75;;;8.85;;
42168;SDS011;27838;43.858;25.974;2024-01-10T05:09:17;16.25;;;8.32;;
42168;SDS011;27838;43.858;25.974;2024-01-10T05:11:44;18.73;;;8.35;;
42168;SDS011;27838;43.858;25.974;2024-01-10T05:14:12;16.48;;;8.18;;
42168;SDS011;27838;43.858;25.974;2024-01-10T05:16:38;16.58;;;8.18;;
42168;SDS011;27838;43.858;25.974;2024-01-10T05:19:05;19.27;;;9.27;;
42168;SDS011;27838;43.858;25.974;2024-01-10T05:21:32;18.10;;;8.38;;
42168;SDS011;27838;43.858;25.974;2024-01-10T05:23:59;22.50;;;8.45;;
42168;SDS011;27838;43.858;25.974;2024-01-10T05:26:26;18.88;;;8.50;;
42168;SDS011;27838;43.858;25.974;2024-01-10T05:28:52;16.23;;;8.73;;
42168;SDS011;27838;43.858;25.974;2024-01-10T05:31:19;16.60;;;8.73;;
42168;SDS011;27838;43.858;25.974;2024-01-10T05:33:45;15.57;;;8.35;;
42168;SDS011;27838;43.858;25.974;2024-01-10T05:36:12;15.23;;;8.18;;
42168;SDS011;27838;43.858;25.974;2024-01-10T05:38:39;23.38;;;8.15;;
42168;SDS011;27838;43.858;25.974;2024-01-10T05:41:06;17.52;;;9.02;;
42168;SDS011;27838;43.858;25.974;2024-01-10T05:43:33;15.25;;;7.95;;
42168;SDS011;27838;43.858;25.974;2024-01-10T05:45:59;26.20;;;9.07;;
42168;SDS011;27838;43.858;25.974;2024-01-10T05:48:26;17.92;;;8.77;;
42168;SDS011;27838;43.858;25.974;2024-01-10T05:50:52;21.15;;;9.00;;
42168;SDS011;27838;43.858;25.974;2024-01-10T05:53:19;17.85;;;8.10;;
42168;SDS011;27838;43.858;25.974;2024-01-10T05:55:46;16.77;;;8.45;;
42168;SDS011;27838;43.858;25.974;2024-01-10T05:58:12;18.38;;;8.43;;
42168;SDS011;27838;43.858;25.974;2024-01-10T06:00:39;17.00;;;8.75;;
42168;SDS011;27838;43.858;25.974;2024-01-10T06:03:05;13.38;;;8.38;;
42168;SDS011;27838;43.858;25.974;2024-01-10T06:05:32;17.63;;;8.48;;
42168;SDS011;27838;43.858;25.974;2024-01-10T06:07:59;16.35;;;8.70;;
42168;SDS011;27838;43.858;25.974;2024-01-10T06:10:28;19.85;;;9.35;;
42168;SDS011;27838;43.858;25.974;2024-01-10T06:12:54;17.67;;;8.77;;
42168;SDS011;27838;43.858;25.974;2024-01-10T06:15:21;17.20;;;8.57;;
42168;SDS011;27838;43.858;25.974;2024-01-10T06:17:48;14.90;;;8.38;;
42168;SDS011;27838;43.858;25.974;2024-01-10T06:20:15;20.50;;;8.55;;
42168;SDS011;27838;43.858;25.974;2024-01-10T06:22:41;17.95;;;9.50;;
42168;SDS011;27838;43.858;25.974;2024-01-10T06:25:08;18.90;;;8.70;;
42168;SDS011;27838;43.858;25.974;2024-01-10T06:27:34;15.70;;;8.98;;
42168;SDS011;27838;43.858;25.974;2024-01-10T06:30:01;17.90;;;9.38;;
42168;SDS011;27838;43.858;25.974;2024-01-10T06:32:28;20.70;;;8.55;;
42168;SDS011;27838;43.858;25.974;2024-01-10T06:34:54;18.92;;;9.27;;
42168;SDS011;27838;43.858;25.974;2024-01-10T06:37:21;13.80;;;7.82;;
42168;SDS011;27838;43.858;25.974;2024-01-10T06:39:47;16.52;;;8.65;;
42168;SDS011;27838;43.858;25.974;2024-01-10T06:42:14;16.35;;;8.40;;
42168;SDS011;27838;43.858;25.974;2024-01-10T06:44:40;19.98;;;8.10;;
42168;SDS011;27838;43.858;25.974;2024-01-10T06:47:07;16.45;;;8.90;;
42168;SDS011;27838;43.858;25.974;2024-01-10T06:49:34;15.60;;;7.50;;
42168;SDS011;27838;43.858;25.974;2024-01-10T06:52:01;16.60;;;8.43;;
42168;SDS011;27838;43.858;25.974;2024-01-10T06:54:28;15.95;;;7.95;;
42168;SDS011;27838;43.858;25.974;2024-01-10T06:56:54;16.02;;;8.10;;
42168;SDS011;27838;43.858;25.974;2024-01-10T06:59:21;18.67;;;8.45;;
42168;SDS011;27838;43.858;25.974;2024-01-10T07:01:51;16.95;;;8.57;;
42168;SDS011;27838;43.858;25.974;2024-01-10T07:04:18;14.30;;;7.88;;
42168;SDS011;27838;43.858;25.974;2024-01-10T07:06:47;13.52;;;7.78;;
42168;SDS011;27838;43.858;25.974;2024-01-10T07:09:14;16.95;;;8.82;;
42168;SDS011;27838;43.858;25.974;2024-01-10T07:11:44;17.40;;;8.40;;
42168;SDS011;27838;43.858;25.974;2024-01-10T07:14:14;18.58;;;9.15;;
42168;SDS011;27838;43.858;25.974;2024-01-10T07:16:41;15.93;;;8.20;;
42168;SDS011;27838;43.858;25.974;2024-01-10T07:19:11;20.52;;;8.45;;
42168;SDS011;27838;43.858;25.974;2024-01-10T07:21:39;16.95;;;8.30;;
42168;SDS011;27838;43.858;25.974;2024-01-10T07:24:06;15.38;;;7.63;;
42168;SDS011;27838;43.858;25.974;2024-01-10T07:26:34;16.65;;;8.60;;
42168;SDS011;27838;43.858;25.974;2024-01-10T07:29:01;16.10;;;9.07;;
42168;SDS011;27838;43.858;25.974;2024-01-10T07:31:28;17.95;;;9.45;;
42168;SDS011;27838;43.858;25.974;2024-01-10T07:33:56;20.35;;;9.55;;
42168;SDS011;27838;43.858;25.974;2024-01-10T07:36:23;21.95;;;9.00;;
42168;SDS011;27838;43.858;25.974;2024-01-10T07:38:51;19.38;;;9.25;;
42168;SDS011;27838;43.858;25.974;2024-01-10T07:41:18;19.63;;;10.18;;
42168;SDS011;27838;43.858;25.974;2024-01-10T07:43:45;19.45;;;10.13;;
42168;SDS011;27838;43.858;25.974;2024-01-10T07:46:12;25.45;;;11.18;;
42168;SDS011;27838;43.858;25.974;2024-01-10T07:48:38;23.05;;;10.63;;
42168;SDS011;27838;43.858;25.974;2024-01-10T07:51:05;21.48;;;10.65;;
42168;SDS011;27838;43.858;25.974;2024-01-10T07:53:31;23.00;;;10.63;;
42168;SDS011;27838;43.858;25.974;2024-01-10T07:55:58;26.17;;;11.77;;
42168;SDS011;27838;43.858;25.974;2024-01-10T07:58:25;23.52;;;11.30;;
42168;SDS011;27838;43.858;25.974;2024-01-10T08:00:52;30.52;;;11.93;;
42168;SDS011;27838;43.858;25.974;2024-01-10T08:03:19;22.15;;;11.65;;
42168;SDS011;27838;43.858;25.974;2024-01-10T08:05:45;25.27;;;11.00;;
42168;SDS011;27838;43.858;25.974;2024-01-10T08:08:12;29.52;;;11.95;;
42168;SDS011;27838;43.858;25.974;2024-01-10T08:10:39;23.83;;;11.45;;
42168;SDS011;27838;43.858;25.974;2024-01-10T08:13:06;23.83;;;10.45;;
42168;SDS011;27838;43.858;25.974;2024-01-10T08:15:32;23.38;;;10.40;;
42168;SDS011;27838;43.858;25.974;2024-01-10T08:18:00;18.52;;;9.40;;
42168;SDS011;27838;43.858;25.974;2024-01-10T08:20:28;24.75;;;10.65;;
42168;SDS011;27838;43.858;25.974;2024-01-10T08:22:54;20.40;;;9.65;;
42168;SDS011;27838;43.858;25.974;2024-01-10T08:25:22;16.35;;;9.85;;
42168;SDS011;27838;43.858;25.974;2024-01-10T08:27:49;15.98;;;9.18;;
42168;SDS011;27838;43.858;25.974;2024-01-10T08:30:18;23.80;;;11.13;;
42168;SDS011;27838;43.858;25.974;2024-01-10T08:32:46;22.35;;;9.88;;
42168;SDS011;27838;43.858;25.974;2024-01-10T08:35:13;19.05;;;10.13;;
42168;SDS011;27838;43.858;25.974;2024-01-10T08:37:40;18.90;;;9.70;;
42168;SDS011;27838;43.858;25.974;2024-01-10T08:40:10;20.85;;;10.65;;
42168;SDS011;27838;43.858;25.974;2024-01-10T08:42:39;18.38;;;9.43;;
42168;SDS011;27838;43.858;25.974;2024-01-10T08:45:07;22.27;;;10.02;;
42168;SDS011;27838;43.858;25.974;2024-01-10T08:47:36;18.63;;;9.82;;
42168;SDS011;27838;43.858;25.974;2024-01-10T08:50:03;19.83;;;9.48;;
42168;SDS011;27838;43.858;25.974;2024-01-10T08:52:33;21.15;;;10.13;;
42168;SDS011;27838;43.858;25.974;2024-01-10T08:55:02;19.60;;;10.23;;
42168;SDS011;27838;43.858;25.974;2024-01-10T08:57:30;20.27;;;9.80;;
42168;SDS011;27838;43.858;25.974;2024-01-10T08:59:57;20.27;;;8.60;;
42168;SDS011;27838;43.858;25.974;2024-01-10T09:02:25;17.70;;;9.52;;
42168;SDS011;27838;43.858;25.974;2024-01-10T09:04:52;18.55;;;9.60;;
42168;SDS011;27838;43.858;25.974;2024-01-10T09:07:19;19.38;;;10.57;;
42168;SDS011;27838;43.858;25.974;2024-01-10T09:09:46;19.27;;;8.65;;
42168;SDS011;27838;43.858;25.974;2024-01-10T09:12:13;14.95;;;8.80;;
42168;SDS011;27838;43.858;25.974;2024-01-10T09:14:40;16.42;;;8.90;;
42168;SDS011;27838;43.858;25.974;2024-01-10T09:17:06;14.45;;;8.80;;
42168;SDS011;27838;43.858;25.974;2024-01-10T09:19:33;21.52;;;9.30;;
42168;SDS011;27838;43.858;25.974;2024-01-10T09:21:59;25.48;;;10.40;;
42168;SDS011;27838;43.858;25.974;2024-01-10T09:24:26;16.02;;;9.23;;
42168;SDS011;27838;43.858;25.974;2024-01-10T09:26:52;15.20;;;8.52;;
42168;SDS011;27838;43.858;25.974;2024-01-10T09:29:19;12.82;;;7.25;;
42168;SDS011;27838;43.858;25.974;2024-01-10T09:31:46;10.73;;;6.45;;
42168;SDS011;27838;43.858;25.974;2024-01-10T09:34:12;13.60;;;6.35;;
42168;SDS011;27838;43.858;25.974;2024-01-10T09:36:39;14.95;;;6.28;;
42168;SDS011;27838;43.858;25.974;2024-01-10T09:39:05;9.35;;;5.45;;
42168;SDS011;27838;43.858;25.974;2024-01-10T09:41:40;9.60;;;5.28;;
42168;SDS011;27838;43.858;25.974;2024-01-10T09:44:11;13.90;;;5.45;;
42168;SDS011;27838;43.858;25.974;2024-01-10T09:46:38;9.00;;;5.47;;
42168;SDS011;27838;43.858;25.974;2024-01-10T09:49:07;8.55;;;4.90;;
42168;SDS011;27838;43.858;25.974;2024-01-10T09:51:34;8.23;;;4.95;;
42168;SDS011;27838;43.858;25.974;2024-01-10T09:54:02;13.43;;;4.53;;
42168;SDS011;27838;43.858;25.974;2024-01-10T09:56:30;8.00;;;4.07;;
42168;SDS011;27838;43.858;25.974;2024-01-10T09:58:58;9.98;;;4.30;;
42168;SDS011;27838;43.858;25.974;2024-01-10T10:01:29;9.18;;;4.93;;
42168;SDS011;27838;43.858;25.974;2024-01-10T10:03:56;8.70;;;4.80;;
42168;SDS011;27838;43.858;25.974;2024-01-10T10:06:24;8.07;;;5.03;;
42168;SDS011;27838;43.858;25.974;2024-01-10T10:08:51;10.52;;;5.32;;
42168;SDS011;27838;43.858;25.974;2024-01-10T10:11:17;8.88;;;5.47;;
42168;SDS011;27838;43.858;25.974;2024-01-10T10:13:44;13.98;;;5.43;;
42168;SDS011;27838;43.858;25.974;2024-01-10T10:16:10;10.63;;;5.53;;
42168;SDS011;27838;43.858;25.974;2024-01-10T10:18:38;11.77;;;5.43;;
42168;SDS011;27838;43.858;25.974;2024-01-10T10:21:10;8.10;;;5.38;;
42168;SDS011;27838;43.858;25.974;2024-01-10T10:23:39;15.57;;;4.70;;
42168;SDS011;27838;43.858;25.974;2024-01-10T10:26:13;10.20;;;4.78;;
42168;SDS011;27838;43.858;25.974;2024-01-10T10:28:48;10.15;;;5.47;;
42168;SDS011;27838;43.858;25.974;2024-01-10T10:31:17;12.57;;;5.40;;
42168;SDS011;27838;43.858;25.974;2024-01-10T10:33:44;13.52;;;5.60;;
42168;SDS011;27838;43.858;25.974;2024-01-10T10:36:15;13.05;;;6.10;;
42168;SDS011;27838;43.858;25.974;2024-01-10T10:38:41;12.43;;;5.55;;
42168;SDS011;27838;43.858;25.974;2024-01-10T10:41:08;11.00;;;5.38;;
42168;SDS011;27838;43.858;25.974;2024-01-10T10:43:35;9.43;;;5.95;;
42168;SDS011;27838;43.858;25.974;2024-01-10T10:46:04;11.98;;;4.80;;
42168;SDS011;27838;43.858;25.974;2024-01-10T10:48:34;12.30;;;5.43;;
42168;SDS011;27838;43.858;25.974;2024-01-10T10:51:06;9.50;;;5.65;;
42168;SDS011;27838;43.858;25.974;2024-01-10T10:53:35;8.68;;;4.60;;
42168;SDS011;27838;43.858;25.974;2024-01-10T10:56:03;9.05;;;4.85;;
42168;SDS011;27838;43.858;25.974;2024-01-10T10:58:35;7.38;;;4.72;;
42168;SDS011;27838;43.858;25.974;2024-01-10T11:01:04;7.00;;;4.28;;
42168;SDS011;27838;43.858;25.974;2024-01-10T11:03:36;11.60;;;5.38;;
42168;SDS011;27838;43.858;25.974;2024-01-10T11:06:05;13.25;;;5.53;;
42168;SDS011;27838;43.858;25.974;2024-01-10T11:11:30;8.80;;;4.72;;
42168;SDS011;27838;43.858;25.974;2024-01-10T11:20:39;6.75;;;3.78;;
42168;SDS011;27838;43.858;25.974;2024-01-10T11:26:10;8.98;;;3.50;;
42168;SDS011;27838;43.858;25.974;2024-01-10T11:28:38;7.20;;;4.15;;
42168;SDS011;27838;43.858;25.974;2024-01-10T11:31:06;6.85;;;3.38;;
42168;SDS011;27838;43.858;25.974;2024-01-10T11:33:35;5.18;;;3.40;;
42168;SDS011;27838;43.858;25.974;2024-01-10T11:36:18;6.03;;;3.10;;
42168;SDS011;27838;43.858;25.974;2024-01-10T11:41:29;5.97;;;3.55;;
42168;SDS011;27838;43.858;25.974;2024-01-10T11:46:39;6.57;;;3.75;;
42168;SDS011;27838;43.858;25.974;2024-01-10T11:49:07;4.53;;;2.88;;
42168;SDS011;27838;43.858;25.974;2024-01-10T11:51:37;3.38;;;2.42;;
42168;SDS011;27838;43.858;25.974;2024-01-10T11:54:04;8.95;;;3.40;;
42168;SDS011;27838;43.858;25.974;2024-01-10T11:56:38;8.07;;;3.15;;
42168;SDS011;27838;43.858;25.974;2024-01-10T11:59:09;7.50;;;3.28;;
42168;SDS011;27838;43.858;25.974;2024-01-10T12:01:37;8.13;;;3.33;;
42168;SDS011;27838;43.858;25.974;2024-01-10T12:04:04;3.78;;;2.67;;
42168;SDS011;27838;43.858;25.974;2024-01-10T12:06:32;8.30;;;3.15;;
42168;SDS011;27838;43.858;25.974;2024-01-10T12:09:01;7.03;;;3.20;;
42168;SDS011;27838;43.858;25.974;2024-01-10T12:11:34;7.55;;;2.78;;
42168;SDS011;27838;43.858;25.974;2024-01-10T12:14:01;4.28;;;2.65;;
42168;SDS011;27838;43.858;25.974;2024-01-10T12:16:28;8.60;;;2.85;;
42168;SDS011;27838;43.858;25.974;2024-01-10T12:18:55;6.50;;;2.90;;
42168;SDS011;27838;43.858;25.974;2024-01-10T12:21:22;6.97;;;3.28;;
42168;SDS011;27838;43.858;25.974;2024-01-10T12:23:48;6.10;;;3.00;;
42168;SDS011;27838;43.858;25.974;2024-01-10T12:26:16;4.65;;;2.90;;
42168;SDS011;27838;43.858;25.974;2024-01-10T12:28:56;12.20;;;4.30;;
42168;SDS011;27838;43.858;25.974;2024-01-10T12:31:26;7.38;;;3.35;;
42168;SDS011;27838;43.858;25.974;2024-01-10T12:33:59;8.68;;;3.83;;
42168;SDS011;27838;43.858;25.974;2024-01-10T12:36:26;5.28;;;3.30;;
42168;SDS011;27838;43.858;25.974;2024-01-10T12:38:52;5.70;;;3.58;;
42168;SDS011;27838;43.858;25.974;2024-01-10T12:41:19;6.05;;;3.60;;
42168;SDS011;27838;43.858;25.974;2024-01-10T12:43:49;8.07;;;3.60;;
42168;SDS011;27838;43.858;25.974;2024-01-10T12:46:19;7.47;;;3.83;;
42168;SDS011;27838;43.858;25.974;2024-01-10T12:48:49;7.07;;;3.78;;
42168;SDS011;27838;43.858;25.974;2024-01-10T12:51:33;5.90;;;3.67;;
42168;SDS011;27838;43.858;25.974;2024-01-10T12:54:01;6.18;;;4.00;;
42168;SDS011;27838;43.858;25.974;2024-01-10T12:56:29;5.65;;;3.75;;
42168;SDS011;27838;43.858;25.974;2024-01-10T12:58:56;6.45;;;3.63;;
42168;SDS011;27838;43.858;25.974;2024-01-10T13:01:23;7.28;;;3.30;;
42168;SDS011;27838;43.858;25.974;2024-01-10T13:03:51;6.45;;;3.65;;
42168;SDS011;27838;43.858;25.974;2024-01-10T13:06:18;12.18;;;3.08;;
42168;SDS011;27838;43.858;25.974;2024-01-10T13:08:47;6.93;;;3.30;;
42168;SDS011;27838;43.858;25.974;2024-01-10T13:11:14;8.85;;;4.20;;
42168;SDS011;27838;43.858;25.974;2024-01-10T13:13:41;4.53;;;3.42;;
42168;SDS011;27838;43.858;25.974;2024-01-10T13:16:08;7.13;;;3.92;;
42168;SDS011;27838;43.858;25.974;2024-01-10T13:18:37;6.53;;;3.42;;
42168;SDS011;27838;43.858;25.974;2024-01-10T13:21:04;5.13;;;3.25;;
42168;SDS011;27838;43.858;25.974;2024-01-10T13:23:31;6.78;;;3.28;;
42168;SDS011;27838;43.858;25.974;2024-01-10T13:25:58;8.82;;;3.63;;
42168;SDS011;27838;43.858;25.974;2024-01-10T13:28:25;6.03;;;3.63;;
42168;SDS011;27838;43.858;25.974;2024-01-10T13:30:52;9.73;;;3.60;;
42168;SDS011;27838;43.858;25.974;2024-01-10T13:33:21;7.60;;;3.53;;
42168;SDS011;27838;43.858;25.974;2024-01-10T13:35:47;8.35;;;3.60;;
42168;SDS011;27838;43.858;25.974;2024-01-10T13:38:14;6.40;;;3.78;;
42168;SDS011;27838;43.858;25.974;2024-01-10T13:40:41;7.47;;;3.63;;
42168;SDS011;27838;43.858;25.974;2024-01-10T13:43:07;8.23;;;3.90;;
42168;SDS011;27838;43.858;25.974;2024-01-10T13:45:34;5.65;;;3.67;;
42168;SDS011;27838;43.858;25.974;2024-01-10T13:48:00;7.00;;;3.45;;
42168;SDS011;27838;43.858;25.974;2024-01-10T13:50:27;8.40;;;3.33;;
42168;SDS011;27838;43.858;25.974;2024-01-10T13:52:55;7.28;;;3.47;;
42168;SDS011;27838;43.858;25.974;2024-01-10T13:55:21;7.57;;;3.80;;
42168;SDS011;27838;43.858;25.974;2024-01-10T13:57:49;8.57;;;3.75;;
42168;SDS011;27838;43.858;25.974;2024-01-10T14:00:18;6.05;;;3.63;;
42168;SDS011;27838;43.858;25.974;2024-01-10T14:02:46;6.78;;;4.13;;
42168;SDS011;27838;43.858;25.974;2024-01-10T14:05:13;7.05;;;3.78;;
42168;SDS011;27838;43.858;25.974;2024-01-10T14:07:39;7.13;;;4.07;;
42168;SDS011;27838;43.858;25.974;2024-01-10T14:10:09;10.07;;;4.75;;
42168;SDS011;27838;43.858;25.974;2024-01-10T14:12:36;8.88;;;4.28;;
42168;SDS011;27838;43.858;25.974;2024-01-10T14:15:03;9.95;;;4.30;;
42168;SDS011;27838;43.858;25.974;2024-01-10T14:17:30;11.43;;;4.75;;
42168;SDS011;27838;43.858;25.974;2024-01-10T14:19:56;7.55;;;4.20;;
42168;SDS011;27838;43.858;25.974;2024-01-10T14:22:23;8.25;;;4.35;;
42168;SDS011;27838;43.858;25.974;2024-01-10T14:24:50;9.50;;;4.38;;
42168;SDS011;27838;43.858;25.974;2024-01-10T14:27:19;14.07;;;6.40;;
42168;SDS011;27838;43.858;25.974;2024-01-10T14:29:46;10.20;;;5.97;;
42168;SDS011;27838;43.858;25.974;2024-01-10T14:32:13;13.52;;;5.57;;
42168;SDS011;27838;43.858;25.974;2024-01-10T14:34:40;10.35;;;5.57;;
42168;SDS011;27838;43.858;25.974;2024-01-10T14:37:07;8.52;;;5.30;;
42168;SDS011;27838;43.858;25.974;2024-01-10T14:39:34;8.40;;;5.25;;
42168;SDS011;27838;43.858;25.974;2024-01-10T14:42:04;11.40;;;6.00;;